Time;durP1;ratioP1;P1;durP2;ratioP2;P2;SDS_P1;SDS_P2;PMS_P1;PMS_P2;Temp;Humidity;BMP_temperature;BMP_pressure;BME280_temperature;BME280_humidity;BME280_pressure;Samples;Min_cycle;Max_cycle;Signal;HPM_P1;HPM_P2
2022/03/23 00:00:55;;;;;;;;;;;;;;;7.91;78.94;101169.69;2090544;28;19924;-79
2022/03/23 00:02:16;;;;;;;;;;;;;;;7.91;78.95;101167.94;2089003;28;19921;-80
2022/03/23 00:03:38;;;;;;;;;;;;;;;7.89;78.90;101164.38;2087766;28;19921;-79
2022/03/23 00:04:59;;;;;;;;;;;;;;;7.87;78.81;101155.56;2095882;28;19927;-80
2022/03/23 00:06:21;;;;;;;;;;;;;;;7.84;78.98;101160.69;2089410;28;19920;-80
2022/03/23 00:07:43;;;;;;;;;;;;;;;7.85;78.96;101162.50;2110207;28;19923;-80
2022/03/23 00:09:05;;;;;;;;;;;;;;;7.85;79.15;101151.97;2101259;28;20364;-79
2022/03/23 00:10:29;;;;;;;;;;;;;;;7.85;79.14;101157.25;2099427;28;19920;-79
2022/03/23 00:11:53;;;;;;;;;;;;;;;7.84;79.17;101154.56;2096373;28;19966;-80
2022/03/23 00:13:14;;;;;;;;;;;;;;;7.83;79.05;101151.03;2101788;28;19927;-79
2022/03/23 00:14:37;;;;;;;;;;;;;;;7.84;79.12;101149.28;2084980;28;19921;-79
2022/03/23 00:16:00;;;;;;;;;;;;;;;7.86;79.17;101151.16;2096333;28;20388;-80
2022/03/23 00:17:22;;;;;;;;;;;;;;;7.86;79.12;101147.63;2091246;28;20316;-79
2022/03/23 00:18:44;;;;;;;;;;;;;;;7.86;79.21;101147.63;2087493;28;20308;-79
2022/03/23 00:20:07;;;;;;;;;;;;;;;7.86;79.15;101145.00;2095940;28;19947;-79
2022/03/23 00:21:29;;;;;;;;;;;;;;;7.87;79.32;101145.06;2099899;28;19920;-79
2022/03/23 00:22:52;;;;;;;;;;;;;;;7.87;79.36;101150.31;2112738;28;19926;-79
2022/03/23 00:24:14;;;;;;;;;;;;;;;7.90;79.28;101152.13;2088253;28;19921;-79
2022/03/23 00:25:37;;;;;;;;;;;;;;;7.92;79.17;101146.09;2095237;28;19920;-79
2022/03/23 00:26:59;;;;;;;;;;;;;;;7.92;79.31;101147.81;2095461;28;19920;-79
2022/03/23 00:28:22;;;;;;;;;;;;;;;7.90;79.45;101144.22;2096205;28;20026;-79
2022/03/23 00:29:42;;;;;;;;;;;;;;;7.87;79.47;101146.78;2104286;28;19957;-79
2022/03/23 00:31:07;;;;;;;;;;;;;;;7.85;79.86;101145.84;2103876;28;20346;-79
2022/03/23 00:32:29;;;;;;;;;;;;;;;7.84;79.80;101144.94;2095965;28;19920;-79
2022/03/23 00:33:50;;;;;;;;;;;;;;;7.83;79.87;101148.41;2091287;28;20392;-79
2022/03/23 00:35:13;;;;;;;;;;;;;;;7.81;79.68;101150.06;2105418;28;20426;-80
2022/03/23 00:36:35;;;;;;;;;;;;;;;7.80;80.05;101148.31;2084605;28;19986;-79
2022/03/23 00:37:58;;;;;;;;;;;;;;;7.80;80.17;101148.31;2076771;28;20008;-79
2022/03/23 00:39:22;;;;;;;;;;;;;;;7.78;80.19;101154.34;2085258;28;19921;-79
2022/03/23 00:40:45;;;;;;;;;;;;;;;7.77;79.94;101153.47;2097118;28;19943;-79
2022/03/23 00:42:11;;;;;;;;;;;;;;;7.76;80.17;101154.28;2091335;28;20308;-78
2022/03/23 00:43:32;;;;;;;;;;;;;;;7.77;80.39;101153.47;2094209;28;20007;-78
2022/03/23 00:44:54;;;;;;;;;;;;;;;7.80;80.30;101153.56;2092900;28;20011;-78
2022/03/23 00:46:19;;;;;;;;;;;;;;;7.80;80.53;101150.06;2079605;28;19921;-79
2022/03/23 00:47:41;;;;;;;;;;;;;;;7.80;80.47;101155.31;2089312;28;20327;-78
2022/03/23 00:49:03;;;;;;;;;;;;;;;7.80;80.58;101155.31;2079271;28;20007;-79
2022/03/23 00:50:25;;;;;;;;;;;;;;;7.79;80.46;101161.41;2087364;28;19935;-77
2022/03/23 00:51:53;;;;;;;;;;;;;;;7.75;80.74;101155.13;2084784;28;19920;-78
2022/03/23 00:53:14;;;;;;;;;;;;;;;7.73;80.46;101155.94;2095215;28;19920;-78
2022/03/23 00:54:36;;;;;;;;;;;;;;;7.71;80.67;101155.00;2095617;28;19920;-78
2022/03/23 00:55:57;;;;;;;;;;;;;;;7.71;80.70;101155.88;2088710;28;19962;-79
2022/03/23 00:57:21;;;;;;;;;;;;;;;7.73;80.94;101155.94;2079205;28;19921;-79
2022/03/23 00:58:42;;;;;;;;;;;;;;;7.73;80.78;101156.84;2090923;28;19928;-79
2022/03/23 01:00:06;;;;;;;;;;;;;;;7.74;80.89;101160.38;2091680;28;19970;-79
2022/03/23 01:01:29;;;;;;;;;;;;;;;7.77;80.79;101163.97;2095733;28;19970;-79
2022/03/23 01:02:52;;;;;;;;;;;;;;;7.81;80.90;101163.22;2090057;28;20435;-79
2022/03/23 01:04:15;;;;;;;;;;;;;;;7.84;81.04;101163.34;2095926;28;19951;-79
2022/03/23 01:05:36;;;;;;;;;;;;;;;7.80;80.59;101168.44;2085033;28;20365;-78
2022/03/23 01:06:59;;;;;;;;;;;;;;;7.74;80.75;101163.00;2100259;28;20398;-78
2022/03/23 01:08:20;;;;;;;;;;;;;;;7.69;80.93;101175.94;2096503;28;20597;-78
2022/03/23 01:09:43;;;;;;;;;;;;;;;7.69;80.93;101165.44;2095557;28;20027;-78
2022/03/23 01:11:05;;;;;;;;;;;;;;;7.71;81.25;101169.03;2096174;28;19927;-78
2022/03/23 01:12:29;;;;;;;;;;;;;;;7.71;81.16;101165.50;2087394;28;19933;-78
2022/03/23 01:13:51;;;;;;;;;;;;;;;7.69;81.20;101177.69;2092785;28;19921;-78
2022/03/23 01:15:13;;;;;;;;;;;;;;;7.66;81.15;101164.47;2089847;28;20521;-78
2022/03/23 01:16:35;;;;;;;;;;;;;;;7.60;81.19;101160.78;2092976;28;20508;-78
2022/03/23 01:17:56;;;;;;;;;;;;;;;7.57;81.43;101175.53;2091189;28;19921;-78
2022/03/23 01:19:22;;;;;;;;;;;;;;;7.53;81.23;101171.03;2095264;28;19920;-78
2022/03/23 01:20:44;;;;;;;;;;;;;;;7.53;81.67;101169.31;2093078;28;19927;-78
2022/03/23 01:22:06;;;;;;;;;;;;;;;7.50;81.33;101171.81;2095514;28;19921;-78
2022/03/23 01:23:30;;;;;;;;;;;;;;;7.51;81.80;101170.09;2095846;28;19920;-78
2022/03/23 01:24:52;;;;;;;;;;;;;;;7.53;81.74;101168.41;2089885;28;19956;-78
2022/03/23 01:26:15;;;;;;;;;;;;;;;7.54;81.66;101152.72;2087659;28;19921;-77
2022/03/23 01:27:38;;;;;;;;;;;;;;;7.57;81.92;101160.69;2081383;28;19928;-78
2022/03/23 01:29:00;;;;;;;;;;;;;;;7.60;81.77;101157.28;2108161;28;19919;-78
2022/03/23 01:30:23;;;;;;;;;;;;;;;7.56;81.58;101145.75;2091531;28;20519;-78
2022/03/23 01:31:46;;;;;;;;;;;;;;;7.53;81.87;101155.28;2084841;28;19924;-78
2022/03/23 01:33:08;;;;;;;;;;;;;;;7.51;81.83;101152.59;2101357;28;19920;-78
2022/03/23 01:34:31;;;;;;;;;;;;;;;7.48;82.08;101148.97;2093087;28;19924;-78
2022/03/23 01:35:53;;;;;;;;;;;;;;;7.46;82.36;101150.66;2102298;28;20605;-78
2022/03/23 01:37:16;;;;;;;;;;;;;;;7.46;82.44;101141.03;2096395;28;19960;-78
2022/03/23 01:38:39;;;;;;;;;;;;;;;7.47;82.43;101149.81;2084892;28;20010;-78
2022/03/23 01:40:01;;;;;;;;;;;;;;;7.47;82.61;101149.81;2081656;28;19943;-78
2022/03/23 01:41:24;;;;;;;;;;;;;;;7.48;82.67;101157.72;2070561;28;20388;-78
2022/03/23 01:42:47;;;;;;;;;;;;;;;7.49;82.67;101153.38;2090752;28;19925;-78
2022/03/23 01:44:13;;;;;;;;;;;;;;;7.51;82.66;101143.81;2091877;28;19988;-78
2022/03/23 01:45:35;;;;;;;;;;;;;;;7.51;82.69;101149.97;2093732;28;19920;-78
2022/03/23 01:47:06;;;;;;;;;;;;;;;7.53;82.50;101145.66;2086934;28;19943;-77
2022/03/23 01:48:28;;;;;;;;;;;;;;;7.51;82.32;101141.19;2093985;28;19929;-78
2022/03/23 01:49:51;;;;;;;;;;;;;;;7.47;82.53;101141.94;2095454;28;19924;-78
2022/03/23 01:51:14;;;;;;;;;;;;;;;7.44;82.61;101147.06;2095377;28;19967;-78
2022/03/23 01:52:35;;;;;;;;;;;;;;;7.37;82.73;101131.94;2089751;28;19979;-78
2022/03/23 01:53:57;;;;;;;;;;;;;;;7.34;82.65;101139.72;2086989;28;20057;-77
2022/03/23 01:55:20;;;;;;;;;;;;;;;7.28;83.14;101127.28;2087311;28;19971;-78
2022/03/23 01:56:41;;;;;;;;;;;;;;;7.26;82.99;101126.34;2092089;28;19979;-78
2022/03/23 01:58:05;;;;;;;;;;;;;;;7.24;83.49;101121.84;2093741;28;19962;-78
2022/03/23 01:59:29;;;;;;;;;;;;;;;7.16;83.38;101111.97;2079328;28;19959;-78
2022/03/23 02:00:53;;;;;;;;;;;;;;;7.13;83.45;101106.63;2101071;28;20021;-78
2022/03/23 02:02:14;;;;;;;;;;;;;;;7.11;83.79;101104.78;2093098;28;20446;-77
2022/03/23 02:03:47;;;;;;;;;;;;;;;7.08;83.71;101105.59;2097923;28;19994;-77
2022/03/23 02:05:08;;;;;;;;;;;;;;;7.06;84.17;101106.38;2088133;28;20313;-78
2022/03/23 02:06:32;;;;;;;;;;;;;;;7.03;84.07;101104.50;2084475;28;19927;-78
2022/03/23 02:07:56;;;;;;;;;;;;;;;7.04;84.15;101114.19;2088223;28;19924;-77
2022/03/23 02:09:18;;;;;;;;;;;;;;;7.09;84.43;101109.09;2086596;28;20007;-77
2022/03/23 02:10:42;;;;;;;;;;;;;;;7.15;84.73;101117.19;2082548;28;20003;-77
2022/03/23 02:12:08;;;;;;;;;;;;;;;7.17;84.57;101111.16;2085369;28;20623;-78
2022/03/23 02:13:32;;;;;;;;;;;;;;;7.18;84.61;101119.91;2089833;28;20407;-77
2022/03/23 02:14:54;;;;;;;;;;;;;;;7.18;84.56;101112.94;2080854;28;19928;-78
2022/03/23 02:16:16;;;;;;;;;;;;;;;7.23;84.46;101113.09;2084273;28;20369;-78
2022/03/23 02:17:38;;;;;;;;;;;;;;;7.27;84.39;101108.84;2103460;28;20299;-78
2022/03/23 02:19:00;;;;;;;;;;;;;;;7.26;84.64;101113.19;2083682;28;19924;-78
2022/03/23 02:20:23;;;;;;;;;;;;;;;7.29;84.44;101109.78;2078506;28;19925;-77
2022/03/23 02:21:47;;;;;;;;;;;;;;;7.30;84.77;101104.59;2088081;28;20019;-78
2022/03/23 02:23:09;;;;;;;;;;;;;;;7.33;84.26;101102.06;2079092;28;19921;-78
2022/03/23 02:24:31;;;;;;;;;;;;;;;7.38;84.69;101097.88;2092449;28;19924;-78
2022/03/23 02:25:53;;;;;;;;;;;;;;;7.41;84.33;101097.09;2089508;28;19920;-78
2022/03/23 02:27:16;;;;;;;;;;;;;;;7.43;84.73;101088.41;2078673;28;19924;-78
2022/03/23 02:28:38;;;;;;;;;;;;;;;7.46;84.74;101093.75;2092331;28;19948;-78
2022/03/23 02:29:59;;;;;;;;;;;;;;;7.47;84.60;101090.31;2081342;28;19925;-78
2022/03/23 02:31:22;;;;;;;;;;;;;;;7.47;84.60;101094.66;2095041;28;19959;-78
2022/03/23 02:32:44;;;;;;;;;;;;;;;7.45;84.63;101096.34;2095032;28;19924;-78
2022/03/23 02:34:06;;;;;;;;;;;;;;;7.39;84.51;101090.88;2089552;28;19970;-78
2022/03/23 02:35:29;;;;;;;;;;;;;;;7.34;84.56;101088.09;2090459;28;19920;-78
2022/03/23 02:36:51;;;;;;;;;;;;;;;7.34;84.53;101092.47;2097120;28;19920;-79
2022/03/23 02:38:14;;;;;;;;;;;;;;;7.32;84.43;101096.75;2086230;28;20589;-79
2022/03/23 02:39:35;;;;;;;;;;;;;;;7.30;84.55;101095.81;2096842;28;19928;-78
2022/03/23 02:40:57;;;;;;;;;;;;;;;7.31;84.92;101094.97;2094801;28;19920;-79
2022/03/23 02:42:18;;;;;;;;;;;;;;;7.31;85.11;101090.63;2084684;28;19924;-79
2022/03/23 02:43:40;;;;;;;;;;;;;;;7.33;84.82;101086.31;2093200;28;19920;-79
2022/03/23 02:45:01;;;;;;;;;;;;;;;7.34;85.01;101081.97;2105681;28;20025;-79
2022/03/23 02:46:23;;;;;;;;;;;;;;;7.34;84.96;101079.34;2089290;28;19982;-79
2022/03/23 02:47:45;;;;;;;;;;;;;;;7.32;84.96;101073.13;2083845;28;20257;-78
2022/03/23 02:49:07;;;;;;;;;;;;;;;7.30;84.77;101069.56;2086458;28;20011;-78
2022/03/23 02:50:29;;;;;;;;;;;;;;;7.29;84.84;101073.91;2086430;28;19924;-78
2022/03/23 02:51:52;;;;;;;;;;;;;;;7.23;84.79;101071.06;2083307;28;19929;-78
2022/03/23 03:01:56;;;;;;;;;;;;;;;7.12;85.11;101068.09;2089251;28;19920;-78
2022/03/23 03:03:19;;;;;;;;;;;;;;;7.11;85.23;101074.19;2100719;28;19966;-78
2022/03/23 03:04:41;;;;;;;;;;;;;;;7.12;85.20;101070.72;2094455;28;19920;-78
2022/03/23 03:06:03;;;;;;;;;;;;;;;7.10;85.37;101063.63;2075558;28;20288;-79
2022/03/23 03:07:27;;;;;;;;;;;;;;;7.11;85.02;101068.94;2098657;28;19923;-78
2022/03/23 03:08:48;;;;;;;;;;;;;;;7.14;85.09;101068.16;2097209;28;19969;-79
2022/03/23 03:10:10;;;;;;;;;;;;;;;7.17;85.24;101068.25;2095583;28;19920;-78
2022/03/23 03:11:32;;;;;;;;;;;;;;;7.19;85.33;101066.56;2097627;28;20390;-78
2022/03/23 03:12:55;;;;;;;;;;;;;;;7.19;84.99;101063.94;2105379;28;19920;-79
2022/03/23 03:14:18;;;;;;;;;;;;;;;7.16;85.16;101064.72;2086637;28;19927;-79
2022/03/23 03:15:39;;;;;;;;;;;;;;;7.16;85.24;101062.09;2097381;28;19924;-79
2022/03/23 03:17:01;;;;;;;;;;;;;;;7.15;85.13;101067.31;2091668;28;20300;-78
2022/03/23 03:18:22;;;;;;;;;;;;;;;7.12;84.86;101068.09;2101755;28;20505;-79
2022/03/23 03:19:44;;;;;;;;;;;;;;;7.11;85.05;101074.19;2102850;28;19924;-78
2022/03/23 03:21:08;;;;;;;;;;;;;;;7.10;85.14;101064.53;2103343;28;19954;-79
2022/03/23 03:22:34;;;;;;;;;;;;;;;7.13;84.98;101067.25;2094937;28;20454;-78
2022/03/23 03:23:55;;;;;;;;;;;;;;;7.13;85.22;101074.25;2099950;28;19920;-78
2022/03/23 03:25:18;;;;;;;;;;;;;;;7.15;85.11;101073.44;2099523;28;19950;-78
2022/03/23 03:26:41;;;;;;;;;;;;;;;7.16;85.18;101074.34;2094242;28;19920;-78
2022/03/23 03:28:02;;;;;;;;;;;;;;;7.15;85.19;101076.06;2099767;28;20371;-79
2022/03/23 03:29:25;;;;;;;;;;;;;;;7.16;85.04;101077.84;2097350;28;19927;-79
2022/03/23 03:30:46;;;;;;;;;;;;;;;7.16;84.89;101077.84;2095333;28;19927;-78
2022/03/23 03:32:09;;;;;;;;;;;;;;;7.14;84.89;101076.03;2098926;28;19920;-78
2022/03/23 03:33:30;;;;;;;;;;;;;;;7.13;84.85;101076.88;2089166;28;19921;-78
2022/03/23 03:34:52;;;;;;;;;;;;;;;7.14;84.62;101078.66;2096276;28;19999;-79
2022/03/23 03:36:15;;;;;;;;;;;;;;;7.13;85.20;101076.88;2096532;28;19920;-78
2022/03/23 03:37:37;;;;;;;;;;;;;;;7.13;85.18;101084.75;2103129;28;19928;-79
2022/03/23 03:39:00;;;;;;;;;;;;;;;7.12;84.97;101082.97;2090594;28;19921;-79
2022/03/23 03:40:21;;;;;;;;;;;;;;;7.12;84.81;101081.22;2104836;28;19920;-79
2022/03/23 03:41:43;;;;;;;;;;;;;;;7.14;84.88;101076.94;2093033;28;20452;-78
2022/03/23 03:43:03;;;;;;;;;;;;;;;7.15;85.09;101089.19;2095075;28;19924;-78
2022/03/23 03:44:26;;;;;;;;;;;;;;;7.16;85.15;101082.22;2096090;28;19920;-78
2022/03/23 03:45:47;;;;;;;;;;;;;;;7.14;84.95;101087.44;2096491;28;19950;-79
2022/03/23 03:47:10;;;;;;;;;;;;;;;7.12;84.93;101098.69;2097479;28;20266;-79
2022/03/23 03:48:32;;;;;;;;;;;;;;;7.08;84.84;101102.06;2092718;28;19978;-79
2022/03/23 03:49:54;;;;;;;;;;;;;;;7.05;84.68;101094.06;2101707;28;19928;-79
2022/03/23 03:51:15;;;;;;;;;;;;;;;6.97;84.89;101104.31;2104649;28;19970;-79
2022/03/23 03:52:39;;;;;;;;;;;;;;;6.87;84.75;101094.34;2103101;28;19926;-79
2022/03/23 03:54:01;;;;;;;;;;;;;;;6.82;84.62;101095.91;2096252;28;20352;-79
2022/03/23 03:55:22;;;;;;;;;;;;;;;6.75;84.84;101094.78;2093199;28;19970;-78
2022/03/23 03:56:44;;;;;;;;;;;;;;;6.76;84.71;101093.94;2092971;28;19924;-79
2022/03/23 03:58:06;;;;;;;;;;;;;;;6.78;85.03;101094.88;2089067;28;20030;-79
2022/03/23 03:59:29;;;;;;;;;;;;;;;6.82;85.27;101089.75;2104599;28;19969;-79
2022/03/23 04:00:51;;;;;;;;;;;;;;;6.82;85.20;101093.28;2104842;28;20354;-78
2022/03/23 04:02:14;;;;;;;;;;;;;;;6.84;85.00;101094.22;2104038;28;19959;-79
2022/03/23 04:03:36;;;;;;;;;;;;;;;6.84;84.97;101094.22;2087960;28;19921;-78
2022/03/23 04:04:57;;;;;;;;;;;;;;;6.83;84.50;101100.28;2098613;28;19966;-79
2022/03/23 04:06:20;;;;;;;;;;;;;;;6.80;84.73;101105.44;2096128;28;19920;-78
2022/03/23 04:07:42;;;;;;;;;;;;;;;6.79;84.85;101106.28;2086987;28;20372;-79
2022/03/23 04:09:05;;;;;;;;;;;;;;;6.74;84.68;101103.50;2084401;28;19964;-79
2022/03/23 04:10:26;;;;;;;;;;;;;;;6.74;84.53;101106.13;2091454;28;19920;-79
2022/03/23 04:11:48;;;;;;;;;;;;;;;6.72;84.81;101115.66;2101792;28;19927;-79
2022/03/23 04:13:11;;;;;;;;;;;;;;;6.73;84.79;101108.69;2096719;28;19927;-79
2022/03/23 04:14:32;;;;;;;;;;;;;;;6.75;84.38;101121.03;2101764;28;19985;-79
2022/03/23 04:15:55;;;;;;;;;;;;;;;6.76;84.52;101124.56;2085384;28;20321;-79
2022/03/23 04:17:16;;;;;;;;;;;;;;;6.72;84.46;101115.66;2093612;28;19920;-79
2022/03/23 04:18:38;;;;;;;;;;;;;;;6.70;84.83;101119.03;2096088;28;19920;-79
2022/03/23 04:20:00;;;;;;;;;;;;;;;6.71;84.75;101112.97;2087406;28;19920;-79
2022/03/23 04:21:22;;;;;;;;;;;;;;;6.74;84.78;101124.47;2109175;28;20291;-79
2022/03/23 04:22:46;;;;;;;;;;;;;;;6.74;84.61;101124.47;2101463;28;19928;-78
2022/03/23 04:24:08;;;;;;;;;;;;;;;6.74;84.78;101118.34;2110101;28;19926;-79
2022/03/23 04:25:29;;;;;;;;;;;;;;;6.73;84.98;101119.19;2093226;28;20594;-79
2022/03/23 04:26:51;;;;;;;;;;;;;;;6.73;84.78;101127.03;2088812;28;19928;-79
2022/03/23 04:28:13;;;;;;;;;;;;;;;6.71;84.49;101124.34;2087355;28;19931;-78
2022/03/23 04:29:35;;;;;;;;;;;;;;;6.70;84.72;101132.16;2095931;28;19928;-78
2022/03/23 04:30:58;;;;;;;;;;;;;;;6.69;84.36;101125.16;2090224;28;19920;-78
2022/03/23 04:32:20;;;;;;;;;;;;;;;6.70;84.45;101132.16;2079550;28;19921;-79
2022/03/23 04:33:42;;;;;;;;;;;;;;;6.67;84.60;101132.06;2101664;28;19920;-80
2022/03/23 04:35:04;;;;;;;;;;;;;;;6.66;84.25;101132.91;2088011;28;19920;-79
2022/03/23 04:36:26;;;;;;;;;;;;;;;6.64;84.44;101130.22;2098344;28;19943;-79
2022/03/23 04:37:51;;;;;;;;;;;;;;;6.67;84.95;101134.69;2098462;28;19970;-79
2022/03/23 04:39:12;;;;;;;;;;;;;;;6.75;85.11;101133.25;2109168;28;19919;-79
2022/03/23 04:40:34;;;;;;;;;;;;;;;6.85;85.29;101137.09;2084862;28;19925;-79
2022/03/23 04:41:56;;;;;;;;;;;;;;;6.90;85.02;101132.88;2079713;28;19921;-79
2022/03/23 04:43:19;;;;;;;;;;;;;;;6.92;85.42;101129.50;2091823;28;19920;-79
2022/03/23 04:44:41;;;;;;;;;;;;;;;6.93;85.09;101135.63;2103830;28;20318;-79
2022/03/23 04:46:04;;;;;;;;;;;;;;;6.95;85.12;101129.63;2101410;28;19982;-79
2022/03/23 04:47:25;;;;;;;;;;;;;;;6.97;85.34;101132.28;2098380;28;19920;-79
2022/03/23 04:48:47;;;;;;;;;;;;;;;6.98;85.25;101131.44;2090473;28;19920;-80
2022/03/23 04:50:09;;;;;;;;;;;;;;;7.01;85.47;101132.47;2087319;28;20417;-79
2022/03/23 04:51:32;;;;;;;;;;;;;;;7.07;85.50;101137.03;2099206;28;19928;-79
2022/03/23 04:52:54;;;;;;;;;;;;;;;7.12;85.46;101132.81;2098561;28;19932;-80
2022/03/23 04:54:16;;;;;;;;;;;;;;;7.13;85.58;101132.88;2090286;28;19970;-79
2022/03/23 04:55:37;;;;;;;;;;;;;;;7.12;85.43;101138.06;2087697;28;19982;-79
2022/03/23 04:57:00;;;;;;;;;;;;;;;7.12;85.46;101133.72;2109843;28;19926;-79
2022/03/23 04:58:24;;;;;;;;;;;;;;;7.09;85.36;101130.09;2101514;28;20511;-79
2022/03/23 04:59:45;;;;;;;;;;;;;;;7.09;85.20;101133.59;2106090;28;20319;-79
2022/03/23 05:01:07;;;;;;;;;;;;;;;7.12;85.30;101132.81;2095564;28;20431;-80
2022/03/23 05:02:28;;;;;;;;;;;;;;;7.15;85.26;101133.81;2101742;28;19969;-79
2022/03/23 05:03:51;;;;;;;;;;;;;;;7.18;85.23;101125.16;2095490;28;20487;-79
2022/03/23 05:05:13;;;;;;;;;;;;;;;7.23;85.58;101126.22;2102956;28;19919;-79
2022/03/23 05:06:36;;;;;;;;;;;;;;;7.27;85.48;101132.47;2104327;28;19920;-79
2022/03/23 05:07:59;;;;;;;;;;;;;;;7.27;85.52;101128.13;2097326;28;19973;-79
2022/03/23 05:09:21;;;;;;;;;;;;;;;7.29;85.37;101138.66;2098305;28;19920;-79
2022/03/23 05:10:44;;;;;;;;;;;;;;;7.31;85.58;101131.72;2098268;28;19924;-79
2022/03/23 05:12:06;;;;;;;;;;;;;;;7.35;85.55;101133.66;2095270;28;19920;-79
2022/03/23 05:13:28;;;;;;;;;;;;;;;7.37;85.71;101134.56;2090197;28;19987;-79
2022/03/23 05:14:49;;;;;;;;;;;;;;;7.40;85.73;101132.94;2095690;28;20017;-79
2022/03/23 05:16:12;;;;;;;;;;;;;;;7.40;85.67;101139.94;2098491;28;19956;-79
2022/03/23 05:17:34;;;;;;;;;;;;;;;7.42;85.49;101149.63;2097587;28;19924;-79
2022/03/23 05:18:55;;;;;;;;;;;;;;;7.47;85.80;101157.69;2094894;28;19928;-79
2022/03/23 05:20:18;;;;;;;;;;;;;;;7.49;86.03;101150.75;2095317;28;20016;-79
2022/03/23 05:21:39;;;;;;;;;;;;;;;7.53;85.98;101152.66;2087296;28;20401;-79
2022/03/23 05:23:03;;;;;;;;;;;;;;;7.56;85.84;101153.63;2088415;28;19974;-79
2022/03/23 05:24:25;;;;;;;;;;;;;;;7.60;86.06;101152.03;2098757;28;19959;-79
2022/03/23 05:25:48;;;;;;;;;;;;;;;7.64;85.87;101159.16;2098092;28;19921;-78
2022/03/23 05:27:09;;;;;;;;;;;;;;;7.69;86.02;101157.56;2095711;28;19920;-79
2022/03/23 05:28:31;;;;;;;;;;;;;;;7.74;86.07;101160.38;2097729;28;20019;-79
2022/03/23 05:29:53;;;;;;;;;;;;;;;7.80;86.20;101164.09;2103616;28;20463;-79
2022/03/23 05:31:16;;;;;;;;;;;;;;;7.83;86.16;101161.53;2106582;28;19924;-79
2022/03/23 05:32:37;;;;;;;;;;;;;;;7.86;86.17;101159.03;2095540;28;19920;-79
2022/03/23 05:33:59;;;;;;;;;;;;;;;7.88;86.24;101166.94;2099000;28;20339;-79
2022/03/23 05:35:21;;;;;;;;;;;;;;;7.91;86.30;101162.69;2103710;28;20014;-79
2022/03/23 05:36:43;;;;;;;;;;;;;;;7.94;86.25;101164.53;2079537;28;20015;-79
2022/03/23 05:38:08;;;;;;;;;;;;;;;7.96;86.01;101165.47;2098593;28;19927;-79
2022/03/23 05:39:30;;;;;;;;;;;;;;;7.96;86.28;101163.72;2092219;28;20015;-79
2022/03/23 05:40:52;;;;;;;;;;;;;;;7.99;86.51;101171.72;2094984;28;19928;-80
2022/03/23 05:42:14;;;;;;;;;;;;;;;8.01;86.36;101166.50;2079672;28;19921;-79
2022/03/23 05:43:36;;;;;;;;;;;;;;;8.05;86.59;101170.13;2093917;28;20407;-79
2022/03/23 05:44:58;;;;;;;;;;;;;;;8.08;86.45;101171.09;2081329;28;20609;-79
2022/03/23 05:46:21;;;;;;;;;;;;;;;8.11;86.46;101175.59;2084630;28;19920;-79
2022/03/23 05:47:43;;;;;;;;;;;;;;;8.12;86.51;101170.38;2108449;28;19919;-79
2022/03/23 05:49:05;;;;;;;;;;;;;;;8.15;86.83;101173.09;2092264;28;20025;-80
2022/03/23 05:50:27;;;;;;;;;;;;;;;8.19;86.49;101168.84;2103844;28;19919;-79
2022/03/23 05:51:49;;;;;;;;;;;;;;;8.22;86.60;101167.19;2097619;28;20575;-79
2022/03/23 05:53:13;;;;;;;;;;;;;;;8.28;86.77;101171.75;2097154;28;19928;-79
2022/03/23 05:54:35;;;;;;;;;;;;;;;8.30;86.81;101167.44;2087729;28;19921;-80
2022/03/23 05:55:57;;;;;;;;;;;;;;;8.32;86.86;101166.69;2095495;28;20335;-79
2022/03/23 05:57:18;;;;;;;;;;;;;;;8.34;86.92;101174.59;2081573;28;19921;-80
2022/03/23 05:58:40;;;;;;;;;;;;;;;8.35;86.65;101187.78;2105160;28;19970;-79
2022/03/23 06:00:01;;;;;;;;;;;;;;;8.35;86.81;101197.41;2093130;28;20015;-79
2022/03/23 06:01:34;;;;;;;;;;;;;;;8.31;86.92;101200.81;2087796;28;20416;-78
2022/03/23 06:02:57;;;;;;;;;;;;;;;8.26;86.95;101211.16;2103695;28;19974;-78
2022/03/23 06:04:19;;;;;;;;;;;;;;;8.20;86.80;101202.19;2088233;28;20056;-78
2022/03/23 06:05:41;;;;;;;;;;;;;;;7.96;86.58;101208.41;2094905;28;19924;-78
2022/03/23 06:07:04;;;;;;;;;;;;;;;7.69;86.61;101207.47;2086572;28;19962;-78
2022/03/23 06:08:27;;;;;;;;;;;;;;;7.59;87.15;101210.66;2094794;28;20039;-78
2022/03/23 06:09:49;;;;;;;;;;;;;;;7.64;87.55;101219.56;2093809;28;20252;-78
2022/03/23 06:11:11;;;;;;;;;;;;;;;7.71;87.87;101204.91;2103589;28;19924;-78
2022/03/23 06:12:33;;;;;;;;;;;;;;;7.79;88.06;101222.75;2103188;28;19958;-78
2022/03/23 06:13:56;;;;;;;;;;;;;;;7.88;88.17;101222.13;2086411;28;19932;-78
2022/03/23 06:15:18;;;;;;;;;;;;;;;7.95;88.21;101219.75;2088697;28;19927;-78
2022/03/23 06:16:40;;;;;;;;;;;;;;;8.02;88.05;101218.22;2097724;28;19956;-78
2022/03/23 06:18:02;;;;;;;;;;;;;;;8.09;88.11;101216.69;2098658;28;19973;-78
2022/03/23 06:19:25;;;;;;;;;;;;;;;8.15;88.04;101214.25;2094975;28;20423;-78
2022/03/23 06:20:47;;;;;;;;;;;;;;;8.21;87.95;101211.84;2086835;28;20323;-78
2022/03/23 06:22:09;;;;;;;;;;;;;;;8.26;88.08;101211.16;2084187;28;19956;-78
2022/03/23 06:23:32;;;;;;;;;;;;;;;8.32;87.84;101215.75;2095907;28;19920;-78
2022/03/23 06:24:55;;;;;;;;;;;;;;;8.38;88.07;101213.31;2103329;28;19928;-78
2022/03/23 06:26:17;;;;;;;;;;;;;;;8.43;87.87;101210.81;2092013;28;19925;-78
2022/03/23 06:27:39;;;;;;;;;;;;;;;8.47;87.79;101218.84;2086793;28;20023;-78
2022/03/23 06:29:00;;;;;;;;;;;;;;;8.49;87.70;101217.16;2094000;28;19969;-79
2022/03/23 06:30:22;;;;;;;;;;;;;;;8.52;87.90;101211.13;2086426;28;20020;-79
2022/03/23 06:31:45;;;;;;;;;;;;;;;8.57;88.03;101222.66;2083891;28;19921;-79
2022/03/23 06:33:07;;;;;;;;;;;;;;;8.58;87.58;101217.47;2092038;28;19966;-79
2022/03/23 06:34:28;;;;;;;;;;;;;;;8.59;87.68;101218.34;2095282;28;20219;-79
2022/03/23 06:35:51;;;;;;;;;;;;;;;8.61;87.87;101214.91;2078467;28;20397;-79
2022/03/23 06:37:13;;;;;;;;;;;;;;;8.65;88.03;101219.44;2092233;28;20006;-79
2022/03/23 06:38:37;;;;;;;;;;;;;;;8.69;88.14;101220.41;2089022;28;20467;-78
2022/03/23 06:39:59;;;;;;;;;;;;;;;8.74;88.03;101224.97;2082745;28;20027;-78
2022/03/23 06:41:21;;;;;;;;;;;;;;;8.80;87.89;101219.88;2103310;28;20388;-78
2022/03/23 06:42:44;;;;;;;;;;;;;;;8.86;87.81;101218.31;2093770;28;19932;-79
2022/03/23 06:44:06;;;;;;;;;;;;;;;8.90;88.18;101218.44;2103205;28;20026;-78
2022/03/23 06:45:29;;;;;;;;;;;;;;;8.95;87.82;101223.81;2101360;28;19924;-78
2022/03/23 06:46:52;;;;;;;;;;;;;;;8.93;87.93;101230.78;2090701;28;19922;-78
2022/03/23 06:48:14;;;;;;;;;;;;;;;8.96;87.87;101226.50;2108135;28;20007;-79
2022/03/23 06:49:37;;;;;;;;;;;;;;;8.98;88.25;101237.97;2100214;28;19924;-78
2022/03/23 06:50:59;;;;;;;;;;;;;;;9.00;88.15;101232.72;2086276;28;19952;-78
2022/03/23 06:52:21;;;;;;;;;;;;;;;9.03;87.94;101232.84;2095878;28;19924;-79
2022/03/23 06:53:45;;;;;;;;;;;;;;;9.09;88.22;101238.28;2094723;28;19925;-79
2022/03/23 06:55:08;;;;;;;;;;;;;;;9.10;88.22;101238.34;2095016;28;19920;-79
2022/03/23 06:56:30;;;;;;;;;;;;;;;9.12;88.18;101233.97;2078586;28;20008;-79
2022/03/23 06:57:53;;;;;;;;;;;;;;;9.15;88.22;101235.81;2085351;28;19920;-79
2022/03/23 06:59:14;;;;;;;;;;;;;;;9.20;87.91;101236.84;2086314;28;19921;-78
2022/03/23 07:00:36;;;;;;;;;;;;;;;9.26;88.36;101234.38;2088454;28;20288;-79
2022/03/23 07:01:59;;;;;;;;;;;;;;;9.31;87.67;101230.16;2092478;28;20283;-78
2022/03/23 07:03:21;;;;;;;;;;;;;;;9.39;87.63;101235.63;2103283;28;20353;-79
2022/03/23 07:04:43;;;;;;;;;;;;;;;9.44;88.28;101227.00;2101880;28;20007;-79
2022/03/23 07:06:05;;;;;;;;;;;;;;;9.48;87.82;101225.34;2094521;28;19927;-78
2022/03/23 07:07:27;;;;;;;;;;;;;;;9.50;87.66;101221.00;2081487;28;19921;-79
2022/03/23 07:10:29;;;;;;;;;;;;;;;9.49;87.94;101228.03;2088452;28;20027;-79
2022/03/23 07:11:51;;;;;;;;;;;;;;;9.54;88.11;101226.41;2083362;28;19928;-79
2022/03/23 07:13:14;;;;;;;;;;;;;;;9.53;88.30;101227.25;2086482;28;19920;-79
2022/03/23 07:14:37;;;;;;;;;;;;;;;9.52;88.28;101222.81;2086410;28;19948;-79
2022/03/23 07:15:59;;;;;;;;;;;;;;;9.53;87.80;101221.09;2094926;28;20339;-79
2022/03/23 07:17:21;;;;;;;;;;;;;;;9.57;88.24;101218.59;2090447;28;19928;-79
2022/03/23 07:18:44;;;;;;;;;;;;;;;9.65;88.14;101220.53;2086144;28;20056;-79
2022/03/23 07:20:06;;;;;;;;;;;;;;;9.72;88.07;101226.00;2086492;28;19932;-79